Time;durP1;ratioP1;P1;durP2;ratioP2;P2;SDS_P1;SDS_P2;PMS_P1;PMS_P2;Temp;Humidity;BMP_temperature;BMP_pressure;BME280_temperature;BME280_humidity;BME280_pressure;Samples;Min_cycle;Max_cycle;Signal;HPM_P1;HPM_P2
2022/07/28 00:02:42;;;;;;;;;;;;;;;25.84;36.53;100237.03;5346601;32;34371;-74
2022/07/28 00:05:44;;;;;;;;;;;;;;;25.61;36.61;100238.56;5347828;32;34715;-73
2022/07/28 00:08:46;;;;;;;;;;;;;;;25.88;36.04;100243.75;5351309;32;35751;-74
2022/07/28 00:11:48;;;;;;;;;;;;;;;25.41;36.88;100245.19;5345904;32;43433;-73
2022/07/28 00:14:55;;;;;;;;;;;;;;;25.16;37.49;100242.31;5371640;32;35128;-73
2022/07/28 00:17:57;;;;;;;;;;;;;;;25.21;37.53;100240.00;5346897;32;35306;-74
2022/07/28 00:21:00;;;;;;;;;;;;;;;24.70;38.50;100236.22;5360848;32;35418;-74
2022/07/28 00:24:02;;;;;;;;;;;;;;;25.75;36.41;100237.13;5335042;32;34304;-74
2022/07/28 00:27:05;;;;;;;;;;;;;;;25.48;37.01;100238.16;5338390;32;36332;-73
2022/07/28 00:30:08;;;;;;;;;;;;;;;25.46;37.09;100238.31;5355538;32;34852;-74
2022/07/28 00:33:10;;;;;;;;;;;;;;;25.32;37.54;100244.28;5345957;32;34360;-73
2022/07/28 00:36:12;;;;;;;;;;;;;;;24.88;38.44;100233.50;5362570;32;34367;-75
2022/07/28 00:39:14;;;;;;;;;;;;;;;25.07;38.23;100227.97;5340749;32;34702;-73
2022/07/28 00:42:17;;;;;;;;;;;;;;;25.21;38.09;100217.66;5352647;32;35528;-73
2022/07/28 00:45:19;;;;;;;;;;;;;;;25.66;37.24;100217.41;5344527;32;45990;-73
2022/07/28 00:48:21;;;;;;;;;;;;;;;25.63;37.31;100217.69;5349339;32;34857;-73
2022/07/28 00:51:24;;;;;;;;;;;;;;;25.28;38.25;100218.69;5337469;32;35584;-72
2022/07/28 00:54:26;;;;;;;;;;;;;;;25.66;37.49;100210.16;5345375;32;34947;-73
2022/07/28 00:57:28;;;;;;;;;;;;;;;25.71;37.53;100214.22;5362839;32;34427;-73
2022/07/28 01:00:30;;;;;;;;;;;;;;;25.59;37.81;100202.91;5337850;32;35222;-72
2022/07/28 01:03:32;;;;;;;;;;;;;;;25.49;38.20;100203.00;5355052;32;34254;-73
2022/07/28 01:06:37;;;;;;;;;;;;;;;25.23;38.85;100219.16;5336731;32;34669;-72
2022/07/28 01:09:45;;;;;;;;;;;;;;;26.17;37.10;100212.91;5329761;32;35433;-72
2022/07/28 01:13:06;;;;;;;;;;;;;;;25.09;39.48;100215.22;5357536;32;35485;-72
2022/07/28 01:16:07;;;;;;;;;;;;;;;25.08;39.68;100212.69;5346576;32;34683;-72
2022/07/28 01:19:15;;;;;;;;;;;;;;;25.20;39.66;100211.44;5360939;32;37542;-72
2022/07/28 01:22:20;;;;;;;;;;;;;;;25.34;39.42;100212.69;5339011;32;36667;-72
2022/07/28 01:25:23;;;;;;;;;;;;;;;25.94;38.38;100209.94;5347349;32;45356;-71
2022/07/28 01:28:31;;;;;;;;;;;;;;;25.21;39.89;100223.03;5353752;32;35252;-73
2022/07/28 01:31:38;;;;;;;;;;;;;;;24.56;41.62;100215.28;5343779;32;34659;-74
2022/07/28 01:34:41;;;;;;;;;;;;;;;24.24;42.61;100218.44;5354167;32;35977;-74
2022/07/28 01:37:44;;;;;;;;;;;;;;;25.23;40.42;100215.62;5335221;32;35001;-72
2022/07/28 01:40:46;;;;;;;;;;;;;;;25.85;39.15;100209.09;5345717;32;34369;-73
2022/07/28 01:43:54;;;;;;;;;;;;;;;26.24;38.33;100205.84;5342905;32;47268;-71
2022/07/28 01:46:55;;;;;;;;;;;;;;;25.29;40.13;100212.31;5331587;32;34808;-74
2022/07/28 01:49:58;;;;;;;;;;;;;;;25.20;40.51;100216.81;5343564;32;34782;-73
2022/07/28 01:53:00;;;;;;;;;;;;;;;24.38;42.40;100212.56;5339195;32;34626;-72
2022/07/28 01:56:02;;;;;;;;;;;;;;;24.82;41.46;100213.47;5347579;32;35507;-74
2022/07/28 01:59:04;;;;;;;;;;;;;;;25.53;39.73;100211.62;5324262;32;34497;-74
2022/07/28 02:02:06;;;;;;;;;;;;;;;26.20;38.63;100199.91;5356771;32;34455;-73
2022/07/28 02:05:09;;;;;;;;;;;;;;;25.69;39.56;100211.66;5341915;32;35760;-73
2022/07/28 02:08:11;;;;;;;;;;;;;;;25.65;39.80;100204.94;5325441;32;34264;-72
2022/07/28 02:14:35;;;;;;;;;;;;;;;25.56;39.99;100206.75;5343172;32;34953;-73
2022/07/28 02:17:37;;;;;;;;;;;;;;;25.56;39.93;100200.50;5358937;32;35019;-72
2022/07/28 02:20:39;;;;;;;;;;;;;;;25.48;40.05;100204.00;5340132;32;34743;-73
2022/07/28 02:23:41;;;;;;;;;;;;;;;25.55;40.14;100202.38;5347956;32;35295;-73
2022/07/28 02:26:48;;;;;;;;;;;;;;;25.74;39.76;100197.78;5360011;32;35595;-73
2022/07/28 02:29:49;;;;;;;;;;;;;;;;;;5346766;32;44837;-73
2022/07/28 02:32:56;;;;;;;;;;;;;;;25.44;40.49;100193.72;5362181;32;34913;-72
2022/07/28 02:36:01;;;;;;;;;;;;;;;25.21;40.90;100202.34;5345080;32;35321;-74
2022/07/28 02:39:07;;;;;;;;;;;;;;;24.99;41.49;100208.19;5356942;32;34827;-72
2022/07/28 02:42:12;;;;;;;;;;;;;;;25.04;41.28;100211.28;5338880;32;34457;-72
2022/07/28 02:45:15;;;;;;;;;;;;;;;25.58;40.35;100211.97;5344253;32;34991;-73
2022/07/28 02:48:17;;;;;;;;;;;;;;;25.38;40.70;100220.28;5369389;32;35660;-72
2022/07/28 02:51:20;;;;;;;;;;;;;;;24.79;41.85;100219.16;5325883;32;43329;-73
2022/07/28 02:54:22;;;;;;;;;;;;;;;24.56;42.69;100216.09;5361120;32;35527;-72
2022/07/28 02:57:26;;;;;;;;;;;;;;;25.10;41.55;100222.28;5334151;32;34432;-74
2022/07/28 03:00:28;;;;;;;;;;;;;;;24.91;42.17;100226.97;5353318;32;34146;-72
2022/07/28 03:03:30;;;;;;;;;;;;;;;25.07;41.65;100227.13;5343468;32;34811;-75
2022/07/28 03:06:32;;;;;;;;;;;;;;;24.57;42.76;100236.59;5341488;32;35090;-75
2022/07/28 03:09:41;;;;;;;;;;;;;;;24.96;41.84;100236.25;5361903;32;34835;-73
2022/07/28 03:12:43;;;;;;;;;;;;;;;24.49;43.04;100233.84;5338589;32;35270;-72
2022/07/28 03:15:44;;;;;;;;;;;;;;;25.08;41.82;100234.19;5363271;32;35434;-72
2022/07/28 03:18:46;;;;;;;;;;;;;;;24.52;43.11;100241.59;5346700;32;35490;-73
2022/07/28 03:21:51;;;;;;;;;;;;;;;25.04;42.12;100233.66;5355364;32;48133;-71
2022/07/28 03:24:53;;;;;;;;;;;;;;;25.68;40.68;100226.13;5352128;32;34727;-73
2022/07/28 03:27:56;;;;;;;;;;;;;;;26.17;39.62;100224.50;5345815;32;35090;-74
2022/07/28 03:31:00;;;;;;;;;;;;;;;26.04;39.74;100234.06;5361609;32;35224;-73
2022/07/28 03:34:03;;;;;;;;;;;;;;;26.11;39.76;100244.00;5346145;32;34269;-74
2022/07/28 03:37:09;;;;;;;;;;;;;;;25.34;41.43;100248.50;5357788;32;34565;-73
2022/07/28 03:40:11;;;;;;;;;;;;;;;25.23;41.81;100251.44;5338633;32;34696;-72
2022/07/28 03:43:17;;;;;;;;;;;;;;;24.97;42.39;100247.84;5348246;32;36503;-73
2022/07/28 03:46:20;;;;;;;;;;;;;;;25.55;41.53;100248.09;5360824;32;45413;-74
2022/07/28 03:49:22;;;;;;;;;;;;;;;25.81;41.11;100247.25;5332840;32;35128;-74
2022/07/28 03:52:24;;;;;;;;;;;;;;;26.00;40.56;100256.94;5350243;32;35205;-73
2022/07/28 03:55:26;;;;;;;;;;;;;;;26.13;40.62;100260.00;5345125;32;34333;-72
2022/07/28 03:58:28;;;;;;;;;;;;;;;26.56;39.53;100266.22;5371158;32;35375;-72
2022/07/28 04:01:30;;;;;;;;;;;;;;;26.43;39.45;100266.69;5344777;32;35114;-73
2022/07/28 04:04:32;;;;;;;;;;;;;;;26.27;40.03;100267.44;5346615;32;34032;-73
2022/07/28 04:07:34;;;;;;;;;;;;;;;25.36;41.92;100278.75;5332902;32;34386;-75
2022/07/28 04:10:36;;;;;;;;;;;;;;;25.61;41.23;100278.91;5345450;32;35386;-74
2022/07/28 04:13:37;;;;;;;;;;;;;;;25.89;40.67;100272.38;5362644;32;34063;-72
2022/07/28 04:16:39;;;;;;;;;;;;;;;26.45;39.41;100267.37;5345357;32;35076;-73
2022/07/28 04:19:41;;;;;;;;;;;;;;;25.48;41.50;100281.19;5362514;32;36035;-72
2022/07/28 04:22:44;;;;;;;;;;;;;;;26.26;39.98;100276.53;5339746;32;36876;-72
2022/07/28 04:25:45;;;;;;;;;;;;;;;25.50;41.89;100271.13;5347203;32;35340;-71
2022/07/28 04:28:47;;;;;;;;;;;;;;;25.90;41.15;100268.69;5362418;32;44928;-71
2022/07/28 04:31:49;;;;;;;;;;;;;;;25.82;41.59;100273.16;5344323;32;44721;-72
2022/07/28 04:34:51;;;;;;;;;;;;;;;25.39;42.78;100283.00;5362428;32;34193;-74
2022/07/28 04:37:59;;;;;;;;;;;;;;;25.46;42.90;100269.75;5341727;32;35225;-73
2022/07/28 04:41:01;;;;;;;;;;;;;;;25.54;42.83;100278.72;5359602;32;34837;-74
2022/07/28 04:44:03;;;;;;;;;;;;;;;26.22;41.22;100280.59;5346324;32;35232;-72
2022/07/28 04:47:05;;;;;;;;;;;;;;;26.18;41.53;100281.91;5336137;32;35003;-72
2022/07/28 04:50:07;;;;;;;;;;;;;;;26.14;41.63;100280.53;5342008;32;35292;-74
2022/07/28 04:53:10;;;;;;;;;;;;;;;26.22;41.65;100285.13;5341669;32;35130;-74
2022/07/28 04:56:12;;;;;;;;;;;;;;;26.12;41.75;100282.56;5359597;32;34811;-74
2022/07/28 04:59:14;;;;;;;;;;;;;;;25.82;42.40;100295.53;5343979;32;35064;-75
2022/07/28 05:02:17;;;;;;;;;;;;;;;25.77;42.64;100288.97;5359519;32;35098;-73
2022/07/28 05:05:19;;;;;;;;;;;;;;;24.88;44.64;100291.81;5340959;32;44318;-73
2022/07/28 05:08:22;;;;;;;;;;;;;;;25.58;43.12;100288.16;5339786;32;35062;-70
2022/07/28 05:11:27;;;;;;;;;;;;;;;25.96;42.41;100277.97;5361081;32;35018;-71
2022/07/28 05:14:29;;;;;;;;;;;;;;;26.67;40.55;100295.56;5346237;32;34456;-78
2022/07/28 05:17:30;;;;;;;;;;;;;;;26.50;41.23;100301.91;5359621;32;35349;-79
2022/07/28 05:20:32;;;;;;;;;;;;;;;27.37;39.25;100300.47;5343689;32;34827;-71
2022/07/28 05:23:34;;;;;;;;;;;;;;;26.42;41.43;100300.88;5354616;32;34577;-83
2022/07/28 05:26:36;;;;;;;;;;;;;;;26.97;40.15;100299.44;5357263;32;34827;-80
2022/07/28 05:29:40;;;;;;;;;;;;;;;27.45;39.12;100298.59;5345596;32;35055;-74
2022/07/28 05:32:49;;;;;;;;;;;;;;;27.27;39.08;100306.03;5359801;32;44887;-74
2022/07/28 05:35:53;;;;;;;;;;;;;;;27.88;37.93;100311.84;5340597;32;35281;-71
2022/07/28 05:38:55;;;;;;;;;;;;;;;28.32;37.16;100313.06;5358626;32;34663;-70
2022/07/28 05:42:00;;;;;;;;;;;;;;;28.43;37.01;100311.81;5343567;32;35241;-70
2022/07/28 05:45:07;;;;;;;;;;;;;;;29.01;36.06;100315.03;5348299;32;34278;-79
2022/07/28 05:48:18;;;;;;;;;;;;;;;27.59;38.71;100321.34;5364363;32;34843;-74
2022/07/28 05:51:20;;;;;;;;;;;;;;;28.90;36.17;100315.41;5319619;32;44587;-79
2022/07/28 05:54:22;;;;;;;;;;;;;;;28.37;37.16;100330.59;5352405;32;34951;-82
2022/07/28 05:57:25;;;;;;;;;;;;;;;28.72;36.88;100335.47;5345069;32;34162;-71
2022/07/28 06:00:27;;;;;;;;;;;;;;;27.10;39.57;100336.72;5369963;32;34242;-69
2022/07/28 06:03:30;;;;;;;;;;;;;;;27.22;39.36;100335.37;5342611;32;34181;-71
2022/07/28 06:06:33;;;;;;;;;;;;;;;28.16;37.36;100333.88;5342330;32;34404;-70
2022/07/28 06:09:34;;;;;;;;;;;;;;;28.52;36.94;100340.47;5352898;32;35963;-77
2022/07/28 06:12:40;;;;;;;;;;;;;;;27.53;38.96;100349.03;5342063;32;33437;-77
2022/07/28 06:15:44;;;;;;;;;;;;;;;28.45;36.70;100344.06;5362883;32;34208;-86
2022/07/28 06:18:46;;;;;;;;;;;;;;;27.00;39.70;100351.19;5348334;32;35172;-71
2022/07/28 06:21:51;;;;;;;;;;;;;;;27.26;39.40;100352.94;5354849;32;43672;-73
2022/07/28 06:24:54;;;;;;;;;;;;;;;27.79;37.96;100362.34;5348017;32;34315;-71
2022/07/28 06:27:57;;;;;;;;;;;;;;;28.68;36.03;100353.09;5349404;32;35153;-79
2022/07/28 06:30:59;;;;;;;;;;;;;;;28.26;36.85;100353.41;5358146;32;35312;-70
2022/07/28 06:34:01;;;;;;;;;;;;;;;29.39;35.01;100349.19;5349241;32;34101;-68
2022/07/28 06:37:04;;;;;;;;;;;;;;;29.79;34.14;100354.44;5354268;32;34043;-72
2022/07/28 06:40:06;;;;;;;;;;;;;;;30.38;33.20;100351.72;5347317;32;35208;-67
2022/07/28 06:43:08;;;;;;;;;;;;;;;30.73;32.08;100350.09;5358029;32;35022;-71
2022/07/28 06:46:10;;;;;;;;;;;;;;;30.29;32.69;100361.00;5348795;32;34318;-72
2022/07/28 06:49:12;;;;;;;;;;;;;;;32.03;29.58;100349.78;5338894;32;34247;-71
2022/07/28 06:52:18;;;;;;;;;;;;;;;30.55;32.01;100366.75;5349945;32;34372;-71
2022/07/28 06:55:20;;;;;;;;;;;;;;;30.90;30.87;100359.66;5345879;32;44658;-70
2022/07/28 06:58:22;;;;;;;;;;;;;;;33.06;27.35;100356.06;5358967;32;34626;-70
2022/07/28 07:01:24;;;;;;;;;;;;;;;32.02;28.90;100357.09;5344512;32;34207;-72
2022/07/28 07:04:27;;;;;;;;;;;;;;;31.07;30.16;100362.13;5356096;32;35858;-74
2022/07/28 07:07:30;;;;;;;;;;;;;;;31.37;28.94;100360.16;5366722;32;34797;-72
2022/07/28 07:10:32;;;;;;;;;;;;;;;33.34;25.91;100358.59;5351378;32;34248;-71
2022/07/28 07:13:34;;;;;;;;;;;;;;;35.45;23.12;100350.72;5359261;32;34318;-69
2022/07/28 07:16:36;;;;;;;;;;;;;;;32.61;27.41;100367.44;5342883;32;34761;-71
2022/07/28 07:19:38;;;;;;;;;;;;;;;32.73;26.16;100355.97;5358056;32;34210;-76
2022/07/28 07:22:41;;;;;;;;;;;;;;;32.71;26.55;100358.87;5349037;32;35574;-74
2022/07/28 07:25:43;;;;;;;;;;;;;;;33.18;25.68;100362.56;5349191;32;35745;-73
2022/07/28 07:28:45;;;;;;;;;;;;;;;33.80;25.15;100361.28;5355420;32;34590;-74
2022/07/28 07:31:47;;;;;;;;;;;;;;;33.49;25.32;100370.16;5344021;32;35496;-76
2022/07/28 07:34:54;;;;;;;;;;;;;;;33.73;24.67;100363.19;5357953;32;44329;-75
2022/07/28 07:37:56;;;;;;;;;;;;;;;33.00;25.71;100367.78;5346871;32;35037;-75
2022/07/28 07:40:59;;;;;;;;;;;;;;;31.70;27.53;100360.41;5362342;32;36099;-75
2022/07/28 07:44:01;;;;;;;;;;;;;;;31.61;27.78;100367.00;5345500;32;34895;-75
2022/07/28 07:47:03;;;;;;;;;;;;;;;31.98;27.22;100371.28;5349539;32;35224;-74
2022/07/28 07:50:05;;;;;;;;;;;;;;;32.07;27.20;100362.78;5341554;32;35675;-72
2022/07/28 07:53:07;;;;;;;;;;;;;;;31.60;27.57;100368.06;5335639;32;35413;-72
2022/07/28 07:56:10;;;;;;;;;;;;;;;34.36;23.63;100362.66;5349083;32;35183;-68
2022/07/28 07:59:12;;;;;;;;;;;;;;;32.63;25.77;100360.94;5346619;32;34224;-69
2022/07/28 08:02:14;;;;;;;;;;;;;;;31.95;26.42;100363.53;5353971;32;34320;-72
2022/07/28 08:05:17;;;;;;;;;;;;;;;33.05;25.45;100357.94;5345955;32;36042;-71
2022/07/28 08:08:19;;;;;;;;;;;;;;;32.12;27.04;100361.31;5345324;32;44737;-73
2022/07/28 08:11:21;;;;;;;;;;;;;;;33.53;24.55;100365.94;5356899;32;35712;-80
2022/07/28 08:14:24;;;;;;;;;;;;;;;32.61;25.98;100358.44;5347776;32;34950;-72
2022/07/28 08:17:25;;;;;;;;;;;;;;;32.06;26.78;100362.94;5351971;32;34401;-73
2022/07/28 08:20:27;;;;;;;;;;;;;;;31.73;26.91;100360.84;5356729;32;34128;-76
2022/07/28 08:23:29;;;;;;;;;;;;;;;30.89;27.81;100370.72;5371558;32;34393;-75
2022/07/28 08:26:31;;;;;;;;;;;;;;;32.43;25.92;100361.72;5341987;32;34302;-73
2022/07/28 08:29:33;;;;;;;;;;;;;;;31.82;26.16;100364.28;5349857;32;35661;-74
2022/07/28 08:32:35;;;;;;;;;;;;;;;34.84;22.55;100354.03;5354455;32;34141;-76
2022/07/28 08:35:37;;;;;;;;;;;;;;;34.36;23.83;100362.66;5342516;32;35294;-77
2022/07/28 08:38:42;;;;;;;;;;;;;;;35.54;21.65;100354.81;5356218;32;35039;-75
2022/07/28 08:41:48;;;;;;;;;;;;;;;34.10;23.44;100366.31;5347921;32;35098;-71
2022/07/28 08:44:54;;;;;;;;;;;;;;;34.94;22.41;100348.97;5355567;32;45005;-74
2022/07/28 08:47:58;;;;;;;;;;;;;;;34.44;22.64;100360.53;5342498;32;34348;-72
2022/07/28 08:51:10;;;;;;;;;;;;;;;35.46;21.52;100347.75;5322332;32;35608;-71
2022/07/28 08:54:14;;;;;;;;;;;;;;;34.20;23.14;100358.53;5357870;32;34387;-73
2022/07/28 08:57:25;;;;;;;;;;;;;;;35.21;22.15;100353.16;5351581;32;36020;-70
2022/07/28 09:00:27;;;;;;;;;;;;;;;33.92;23.54;100362.34;5348962;32;45301;-71
2022/07/28 09:03:29;;;;;;;;;;;;;;;38.44;18.14;100348.03;5340956;32;34344;-75
2022/07/28 09:06:32;;;;;;;;;;;;;;;34.71;22.62;100354.94;5353169;32;35454;-74
2022/07/28 09:09:34;;;;;;;;;;;;;;;36.48;20.60;100339.94;5352127;32;34400;-75
2022/07/28 09:12:36;;;;;;;;;;;;;;;37.35;19.47;100340.34;5340661;32;34427;-74
2022/07/28 09:15:38;;;;;;;;;;;;;;;36.22;20.65;100345.72;5356748;32;36177;-72
2022/07/28 09:18:40;;;;;;;;;;;;;;;38.68;18.18;100348.78;5346908;32;35086;-74
2022/07/28 09:21:42;;;;;;;;;;;;;;;38.22;18.22;100345.94;5352486;32;34349;-75
2022/07/28 09:24:44;;;;;;;;;;;;;;;40.20;16.30;100328.44;5338995;32;34625;-75
2022/07/28 09:27:50;;;;;;;;;;;;;;;35.19;21.44;100329.88;5346314;32;42884;-76
2022/07/28 09:30:52;;;;;;;;;;;;;;;37.41;19.14;100322.97;5351001;32;34410;-75
2022/07/28 09:33:59;;;;;;;;;;;;;;;38.52;17.86;100322.94;5343741;32;34268;-73
2022/07/28 09:37:01;;;;;;;;;;;;;;;39.49;16.80;100316.41;5352422;32;33869;-70
2022/07/28 09:40:10;;;;;;;;;;;;;;;37.00;19.17;100325.75;5347567;32;35693;-69
2022/07/28 09:43:12;;;;;;;;;;;;;;;35.42;20.45;100321.91;5338289;32;34385;-72
2022/07/28 09:46:14;;;;;;;;;;;;;;;37.27;18.65;100313.28;5338761;32;35426;-78
2022/07/28 09:49:17;;;;;;;;;;;;;;;35.68;20.43;100318.13;5332771;32;36385;-71
2022/07/28 09:52:45;;;;;;;;;;;;;;;37.27;18.99;100313.28;5343323;32;46015;-74
2022/07/28 09:55:55;;;;;;;;;;;;;;;36.79;19.40;100307.94;5341154;32;35772;-73
2022/07/28 09:58:58;;;;;;;;;;;;;;;39.09;17.17;100306.41;5345363;32;44691;-81
2022/07/28 10:02:01;;;;;;;;;;;;;;;36.98;19.12;100303.25;5359129;32;35744;-76
2022/07/28 10:05:04;;;;;;;;;;;;;;;39.79;16.06;100300.38;5330953;32;34241;-73
2022/07/28 10:08:05;;;;;;;;;;;;;;;37.11;18.63;100303.84;5360078;32;34920;-75
2022/07/28 10:11:08;;;;;;;;;;;;;;;39.16;16.47;100292.50;5344354;32;35752;-75
2022/07/28 10:14:12;;;;;;;;;;;;;;;38.12;17.55;100288.06;5355902;32;34381;-72
2022/07/28 10:17:24;;;;;;;;;;;;;;;37.87;17.98;100290.28;5342292;32;33210;-76
2022/07/28 10:20:27;;;;;;;;;;;;;;;38.90;16.61;100297.59;5354395;32;44758;-78
2022/07/28 10:23:29;;;;;;;;;;;;;;;37.93;17.61;100292.91;5346816;32;35493;-69
2022/07/28 10:26:32;;;;;;;;;;;;;;;38.17;17.38;100292.84;5335832;32;34380;-74
2022/07/28 10:29:34;;;;;;;;;;;;;;;38.44;17.09;100284.87;5354587;32;34083;-73
2022/07/28 10:32:44;;;;;;;;;;;;;;;38.87;16.95;100273.34;5347611;32;35110;-72
2022/07/28 10:35:47;;;;;;;;;;;;;;;40.05;15.75;100276.78;5354893;32;34287;-73
2022/07/28 10:39:04;;;;;;;;;;;;;;;41.08;14.89;100267.66;5337106;32;44509;-74
2022/07/28 10:42:10;;;;;;;;;;;;;;;40.25;15.42;100270.69;5339106;32;35440;-77
2022/07/28 10:45:12;;;;;;;;;;;;;;;38.74;16.97;100263.50;5356531;32;35326;-79
2022/07/28 10:48:15;;;;;;;;;;;;;;;40.07;15.89;100268.28;5349269;32;34894;-78
2022/07/28 10:51:18;;;;;;;;;;;;;;;40.50;15.43;100261.06;5332386;32;35036;-78
2022/07/28 10:54:25;;;;;;;;;;;;;;;42.35;13.67;100264.78;5338586;32;44441;-78
2022/07/28 10:57:28;;;;;;;;;;;;;;;41.44;14.29;100256.91;5352926;32;34037;-77
2022/07/28 11:00:32;;;;;;;;;;;;;;;41.62;14.35;100257.28;5344431;32;35831;-74
2022/07/28 11:03:54;;;;;;;;;;;;;;;43.08;13.24;100248.00;5345390;32;44972;-74
2022/07/28 11:07:12;;;;;;;;;;;;;;;44.05;11.94;100238.31;5356274;32;34748;-69
2022/07/28 11:10:15;;;;;;;;;;;;;;;42.70;13.11;100242.75;5344028;32;34296;-75
2022/07/28 11:13:25;;;;;;;;;;;;;;;41.10;14.37;100246.19;5355651;32;34338;-74
2022/07/28 11:16:30;;;;;;;;;;;;;;;41.04;14.56;100238.97;5349210;32;35329;-74
2022/07/28 11:19:43;;;;;;;;;;;;;;;42.35;13.30;100235.22;5344403;32;33147;-68
2022/07/28 11:23:34;;;;;;;;;;;;;;;42.49;12.97;100237.44;5368632;32;34679;-88
2022/07/28 11:26:37;;;;;;;;;;;;;;;42.38;13.30;100237.44;5344827;32;36701;-77
2022/07/28 11:29:45;;;;;;;;;;;;;;;43.08;12.86;100217.59;5357495;32;34490;-76
2022/07/28 11:32:51;;;;;;;;;;;;;;;40.32;15.14;100231.97;5356498;32;36358;-70
2022/07/28 11:35:53;;;;;;;;;;;;;;;37.23;18.13;100237.25;5342248;32;35700;-69
2022/07/28 11:39:28;;;;;;;;;;;;;;;37.71;17.74;100231.53;5337661;32;34885;-77
2022/07/28 11:42:31;;;;;;;;;;;;;;;37.67;17.90;100238.56;5303786;32;34184;-72
2022/07/28 11:45:34;;;;;;;;;;;;;;;41.35;14.44;100231.75;5344449;32;35364;-73
2022/07/28 11:48:43;;;;;;;;;;;;;;;40.13;15.29;100228.72;5351983;32;35958;-75
2022/07/28 11:52:21;;;;;;;;;;;;;;;39.84;15.90;100227.25;5323413;32;33492;-74
2022/07/28 11:55:23;;;;;;;;;;;;;;;39.54;15.84;100225.72;5268361;32;34033;-72
2022/07/28 11:58:45;;;;;;;;;;;;;;;40.24;15.39;100219.47;5343177;32;36231;-73
2022/07/28 12:01:51;;;;;;;;;;;;;;;38.53;17.10;100217.53;5337355;32;34302;-72
2022/07/28 12:04:54;;;;;;;;;;;;;;;36.56;18.99;100218.34;5352221;32;44329;-73
2022/07/28 12:07:57;;;;;;;;;;;;;;;35.05;20.88;100214.44;5342466;32;34395;-72
2022/07/28 12:10:59;;;;;;;;;;;;;;;33.74;22.60;100223.16;5355908;32;33562;-73
2022/07/28 12:14:02;;;;;;;;;;;;;;;35.95;20.11;100203.84;5345437;32;34403;-77
2022/07/28 12:17:04;;;;;;;;;;;;;;;37.00;19.03;100207.97;5349609;32;35245;-74
2022/07/28 12:20:07;;;;;;;;;;;;;;;35.16;20.59;100210.97;5348391;32;35015;-76
2022/07/28 12:23:32;;;;;;;;;;;;;;;34.65;21.04;100203.84;5342415;32;43531;-72
2022/07/28 12:26:47;;;;;;;;;;;;;;;35.69;20.10;100207.72;5357871;32;34178;-69
2022/07/28 12:29:57;;;;;;;;;;;;;;;34.65;21.24;100208.44;5341504;32;44514;-70
2022/07/28 12:32:59;;;;;;;;;;;;;;;33.61;22.64;100212.28;5351186;32;34163;-78
2022/07/28 12:36:01;;;;;;;;;;;;;;;35.28;21.00;100200.97;5339695;32;35243;-78
2022/07/28 12:39:04;;;;;;;;;;;;;;;36.06;19.93;100200.28;5340706;32;34279;-73
2022/07/28 12:42:13;;;;;;;;;;;;;;;36.28;19.75;100205.28;5356206;32;36138;-71
2022/07/28 12:45:15;;;;;;;;;;;;;;;36.29;19.69;100190.53;5344139;32;34272;-71
2022/07/28 12:48:17;;;;;;;;;;;;;;;36.12;19.86;100201.28;5352504;32;34392;-73
2022/07/28 12:51:28;;;;;;;;;;;;;;;34.90;21.47;100201.09;5324166;32;46773;-82
2022/07/28 12:54:35;;;;;;;;;;;;;;;34.96;21.22;100202.13;5343457;32;35163;-78
2022/07/28 12:57:40;;;;;;;;;;;;;;;34.34;21.89;100206.56;5357326;32;33997;-76
2022/07/28 13:00:49;;;;;;;;;;;;;;;33.62;23.01;100203.94;5343182;32;44468;-73
2022/07/28 13:03:51;;;;;;;;;;;;;;;34.54;21.81;100190.91;5356236;32;34584;-75
2022/07/28 13:06:55;;;;;;;;;;;;;;;35.06;21.11;100187.97;5343459;32;35254;-76
2022/07/28 13:10:04;;;;;;;;;;;;;;;35.37;20.61;100190.59;5355431;32;34688;-73
2022/07/28 13:13:12;;;;;;;;;;;;;;;35.62;20.45;100189.69;5366263;32;35237;-76
2022/07/28 13:16:15;;;;;;;;;;;;;;;34.57;22.09;100186.88;5346361;32;34371;-73
2022/07/28 13:19:20;;;;;;;;;;;;;;;35.53;21.04;100181.81;5359564;32;34188;-73
2022/07/28 13:22:28;;;;;;;;;;;;;;;35.74;20.76;100185.13;5342539;32;44587;-76
2022/07/28 13:25:30;;;;;;;;;;;;;;;35.41;20.82;100182.75;5349704;32;34681;-75
2022/07/28 13:28:32;;;;;;;;;;;;;;;35.93;20.14;100178.59;5345391;32;34455;-77
2022/07/28 13:31:34;;;;;;;;;;;;;;;34.59;21.84;100180.16;5346582;32;34668;-77
2022/07/28 13:34:37;;;;;;;;;;;;;;;34.12;22.30;100178.75;5355984;32;35936;-74
2022/07/28 13:37:39;;;;;;;;;;;;;;;34.95;21.31;100173.16;5344264;32;34429;-77
2022/07/28 13:40:41;;;;;;;;;;;;;;;35.77;20.34;100165.56;5359115;32;34852;-78
2022/07/28 13:43:44;;;;;;;;;;;;;;;34.88;21.28;100169.63;5350780;32;34322;-77
2022/07/28 13:46:49;;;;;;;;;;;;;;;35.48;20.81;100165.25;5360665;32;45171;-77
2022/07/28 13:49:51;;;;;;;;;;;;;;;35.55;20.52;100167.91;5328891;32;34149;-75
2022/07/28 13:52:53;;;;;;;;;;;;;;;35.61;20.42;100168.91;5337302;32;33749;-75
2022/07/28 13:55:55;;;;;;;;;;;;;;;34.29;21.90;100166.28;5356861;32;35211;-75
2022/07/28 13:58:57;;;;;;;;;;;;;;;35.67;20.52;100162.50;5339854;32;35111;-74
2022/07/28 14:02:00;;;;;;;;;;;;;;;34.45;22.03;100168.50;5352432;32;35519;-76
2022/07/28 14:05:02;;;;;;;;;;;;;;;35.62;20.59;100156.91;5335861;32;34465;-74
2022/07/28 14:08:04;;;;;;;;;;;;;;;35.27;20.95;100155.59;5346588;32;34268;-74
2022/07/28 14:11:06;;;;;;;;;;;;;;;35.01;21.24;100153.16;5341066;32;35018;-74
2022/07/28 14:14:09;;;;;;;;;;;;;;;34.58;21.74;100153.91;5338999;32;35505;-76
2022/07/28 14:17:13;;;;;;;;;;;;;;;33.72;22.96;100148.13;5359052;32;36361;-75
2022/07/28 14:20:35;;;;;;;;;;;;;;;33.48;23.27;100152.41;5344084;32;34419;-75
2022/07/28 14:23:37;;;;;;;;;;;;;;;33.45;23.35;100158.28;5356049;32;34820;-76
2022/07/28 14:26:39;;;;;;;;;;;;;;;33.96;22.85;100150.13;5353808;32;34245;-76
2022/07/28 14:29:42;;;;;;;;;;;;;;;34.60;21.80;100143.62;5359604;32;34920;-75
2022/07/28 14:32:44;;;;;;;;;;;;;;;33.47;23.28;100158.91;5355735;32;35165;-76
2022/07/28 14:35:45;;;;;;;;;;;;;;;32.54;24.31;100161.72;5346758;32;35033;-75
2022/07/28 14:38:48;;;;;;;;;;;;;;;34.07;22.66;100145.84;5359153;32;38416;-76
2022/07/28 14:41:54;;;;;;;;;;;;;;;33.57;23.44;100143.78;5343350;32;34904;-75
2022/07/28 14:44:58;;;;;;;;;;;;;;;34.01;22.87;100152.22;5355724;32;34374;-75
2022/07/28 14:48:00;;;;;;;;;;;;;;;33.57;23.51;100140.22;5330829;32;34594;-75
2022/07/28 14:51:02;;;;;;;;;;;;;;;33.67;23.45;100141.41;5329383;32;34630;-75
2022/07/28 14:54:03;;;;;;;;;;;;;;;34.61;22.05;100136.28;5352571;32;35353;-74
2022/07/28 14:57:05;;;;;;;;;;;;;;;34.06;22.73;100138.75;5358202;32;34190;-74
2022/07/28 15:00:12;;;;;;;;;;;;;;;33.24;23.56;100140.31;5356156;32;34499;-74
2022/07/28 15:03:13;;;;;;;;;;;;;;;33.61;23.41;100131.38;5336194;32;34838;-77
2022/07/28 15:06:15;;;;;;;;;;;;;;;32.87;24.61;100140.78;5353840;32;36816;-77
2022/07/28 15:09:17;;;;;;;;;;;;;;;33.35;24.04;100129.56;5352083;32;43770;-74
2022/07/28 15:12:19;;;;;;;;;;;;;;;33.54;23.89;100121.56;5348899;32;35134;-75
2022/07/28 15:15:25;;;;;;;;;;;;;;;33.49;23.62;100121.38;5358435;32;35078;-73
2022/07/28 15:18:27;;;;;;;;;;;;;;;33.75;23.38;100121.28;5343925;32;32947;-75
2022/07/28 15:21:29;;;;;;;;;;;;;;;33.67;23.55;100121.50;5361033;32;35119;-76
2022/07/28 15:24:37;;;;;;;;;;;;;;;34.03;23.17;100120.09;5340278;32;34405;-75
2022/07/28 15:27:39;;;;;;;;;;;;;;;33.96;23.14;100117.41;5359654;32;35233;-74
2022/07/28 15:30:50;;;;;;;;;;;;;;;32.74;24.36;100124.44;5349786;32;35857;-76
2022/07/28 15:33:54;;;;;;;;;;;;;;;33.41;23.71;100131.47;5337183;32;47014;-73
2022/07/28 15:36:59;;;;;;;;;;;;;;;32.85;24.28;100131.97;5360162;32;34956;-74
2022/07/28 15:40:02;;;;;;;;;;;;;;;33.72;23.13;100129.06;5336392;32;33937;-78
2022/07/28 15:43:04;;;;;;;;;;;;;;;34.52;21.99;100121.22;5361421;32;35156;-76
2022/07/28 15:46:08;;;;;;;;;;;;;;;33.69;23.04;100124.87;5345432;32;35663;-77
2022/07/28 15:49:10;;;;;;;;;;;;;;;33.51;23.52;100119.31;5335421;32;35482;-75
2022/07/28 15:52:13;;;;;;;;;;;;;;;33.17;23.85;100125.84;5344271;32;35030;-73